DQNA4: Rolling Fork River At Dequeen

                                SHEF ID:       DQNA4     Rolling Fork near DeQueen, AR
STATION TYPE: Stream Gauge

PRECIP STAGE RIV-FLOW BAT-LOAD
in ft cfs volt
Ccp-Rev Ccp-Rev Ccp-Rev Ccp-Rev
(America/Chicago)
04/25 00:00 0.00 3.00 187 12.73
04/25 01:00 0.00 3.01 189 12.73
04/25 02:00 0.00 3.03 192 12.73
04/25 03:00 0.00 3.04 194 12.65
04/25 04:00 0.00 3.05 195 12.65
04/25 05:00 0.01 3.06 197 12.65
04/25 06:00 0.00 3.07 198 12.65
04/25 07:00 0.00 3.08 200 12.57
04/25 08:00 0.00 3.08 200 12.65
04/25 09:00 0.00 3.07 198 12.97
04/25 10:00 0.00 3.06 197 13.37
04/25 11:00 0.00 3.04 194 13.60
04/25 12:00 0.00 3.03 192 13.92
04/25 13:00 0.00 3.01 189 13.37
04/25 14:00 0.00 3.00 187 13.44
04/25 15:00 0.00 2.99 186 13.37
04/25 16:00 0.00 2.97 182 13.29
04/25 17:00 0.00 2.96 181 13.29
04/25 18:00 0.00 2.95 179 13.29
04/25 19:00 0.00 2.95 179 13.21
04/25 20:00 0.00 2.94 178 12.97
04/25 21:00 0.00 2.94 178 12.81
04/25 22:00 0.00 2.93 176 12.81
04/25 23:00 0.00 2.92 174 12.81
Data processed at Sun 26Apr2026 04:11 GMT

NOTICE: If you are parsing this page

Please convert to using our Data API. Starting early 2026 we will be migrating to: https://water.usace.army.mil with modern pages rendered in JavaScript. When this migration completes you will no longer be able to scrape this page! CWMSDataAPI (CDA)

Timeseries IDs (TSIDs)

TSIDs used from left to right in the data table
DEQR.Precip-Inc.Total.1Hour.1Hour.Ccp-Rev
DEQR.Stage.Inst.1Hour.0.Ccp-Rev
DEQR.Flow.Inst.1Hour.0.Ccp-Rev
DEQR.Volt-Battery Load.Inst.1Hour.0.Ccp-Rev

                            

All information presented herein is the property of the government of the United States of America and may be revised or deleted at any time without prior notice. Dissemination of this information without the expressed written consent of the Public Affairs Office, Tulsa District U.S. Army Corps of Engineers is strictly prohibited. These data are gathered electronically and, as presented, have NOT undergone any form of quality control. These data are NOT guaranteed to be valid or correct.